»·PEaware :: SWA1827 KDEN-KSLC

SWA1827 :: KDEN-KSLC

FLIGHT INFORMATION

Flight Status: Arrived
Operator:
Southwest Airlines
More flights by this operator :: More flights under this callsign
Pilot: Anonymous 32031 (32031)
Aircraft: BOEING 737-800
(B738)
More flights by this aircraft type
Origin: KDEN Denver Intl
United States
Destination: KSLC Salt Lake City Intl
United States
More flights between these airports :: More routes between these airports
Route: +ZIMMR2 CHNGY EKR LEEHY5
File this flight plan on PilotEdge
Remarks:
Altitude:
(Current/Filed)
38,000ft
Speed:
(Current/Filed)
452kts
Departed: 28-Oct-20 04:45 PM
Arrived: 28-Oct-20 05:44 PM
Distance/Time
Traveled:
339nm/0:59
Distance/Time
To Go:
Arrived

Flight Plot

Page will automatically refresh every two minutes.

Flight plan parsing failed; only flown route is shown


Map Options




Map Legend


Flown Route
Filed Route
Departure Airport
Arrival Airport
Navaid (VOR, NDB)
Fix

Horizontal Profiles

Position Reports

Time Latitude Longitude Heading Altitude Ground
Speed
28-Oct-20 16:11 39.863577 -104.677366 177 5445ft 0kts
28-Oct-20 16:12 39.863577 -104.677366 177 5445ft 0kts
28-Oct-20 16:13 39.863577 -104.677366 177 5445ft 0kts
28-Oct-20 16:14 39.863577 -104.677366 177 5445ft 0kts
28-Oct-20 16:15 39.863577 -104.677366 177 5445ft 0kts
28-Oct-20 16:16 39.863577 -104.677366 177 5445ft 0kts
28-Oct-20 16:17 39.863577 -104.677366 177 5445ft 0kts
28-Oct-20 16:18 39.863577 -104.677366 177 5445ft 0kts
28-Oct-20 16:19 39.863577 -104.677366 177 5445ft 0kts
28-Oct-20 16:20 39.863577 -104.677366 177 5445ft 0kts
28-Oct-20 16:21 39.863577 -104.677366 177 5445ft 0kts
28-Oct-20 16:22 39.863577 -104.677366 177 5445ft 0kts
28-Oct-20 16:23 39.863577 -104.677366 177 5445ft 0kts
28-Oct-20 16:24 39.863577 -104.677366 177 5445ft 0kts
28-Oct-20 16:25 39.863577 -104.677366 177 5445ft 0kts
28-Oct-20 16:26 39.863577 -104.677366 177 5445ft 0kts
28-Oct-20 16:26 39.863577 -104.677366 177 5445ft 0kts
28-Oct-20 16:28 39.863577 -104.677366 177 5445ft 0kts
28-Oct-20 16:28 39.863577 -104.677366 177 5445ft 0kts
28-Oct-20 16:29 39.863577 -104.677366 177 5445ft 0kts
28-Oct-20 16:30 39.863577 -104.677366 177 5445ft 0kts
28-Oct-20 16:31 39.863573 -104.677366 177 5445ft 0kts
28-Oct-20 16:32 39.864084 -104.677059 240 5445ft 2kts
28-Oct-20 16:33 39.864150 -104.676719 270 5445ft 0kts
28-Oct-20 16:34 39.864150 -104.676719 270 5445ft 0kts
28-Oct-20 16:35 39.864150 -104.676719 270 5445ft 0kts
28-Oct-20 16:36 39.864150 -104.676719 270 5445ft 0kts
28-Oct-20 16:37 39.864151 -104.676874 270 5445ft 5kts
28-Oct-20 16:38 39.864236 -104.682257 272 5445ft 17kts
28-Oct-20 16:39 39.861030 -104.683949 180 5445ft 31kts
28-Oct-20 16:40 39.853674 -104.684027 180 5445ft 23kts
28-Oct-20 16:41 39.846090 -104.684120 180 5445ft 33kts
28-Oct-20 16:42 39.841923 -104.684171 180 5445ft 0kts
28-Oct-20 16:43 39.841817 -104.684173 180 5445ft 5kts
28-Oct-20 16:44 39.840733 -104.694828 270 5445ft 128kts
28-Oct-20 16:45 39.847855 -104.757233 311 7716ft 194kts
28-Oct-20 16:46 39.887735 -104.825276 309 9833ft 276kts
28-Oct-20 16:47 39.927679 -104.917732 289 11492ft 326kts
28-Oct-20 16:48 39.935457 -105.039741 273 14627ft 350kts
28-Oct-20 16:49 39.938323 -105.170352 272 17561ft 366kts
28-Oct-20 16:50 39.945636 -105.304297 277 20242ft 377kts
28-Oct-20 16:51 39.956645 -105.442340 278 22612ft 389kts
28-Oct-20 16:52 39.967761 -105.584376 279 24707ft 400kts
28-Oct-20 16:53 39.977524 -105.731031 277 26468ft 414kts
28-Oct-20 16:54 39.984931 -105.883141 278 28071ft 426kts
28-Oct-20 16:55 39.992644 -106.039441 278 29556ft 437kts
28-Oct-20 16:56 40.000317 -106.197804 279 31205ft 439kts
28-Oct-20 16:57 40.007816 -106.356278 279 32798ft 440kts
28-Oct-20 16:58 40.014972 -106.515815 279 34262ft 442kts
28-Oct-20 16:59 40.021413 -106.675037 279 35832ft 438kts
28-Oct-20 17:00 40.028011 -106.832649 279 37203ft 436kts
28-Oct-20 17:01 40.034531 -106.989919 278 38258ft 437kts
28-Oct-20 17:02 40.040914 -107.148097 278 38267ft 434kts
28-Oct-20 17:03 40.047063 -107.305330 278 38268ft 435kts
28-Oct-20 17:04 40.053031 -107.463100 278 38253ft 435kts
28-Oct-20 17:05 40.058802 -107.621208 278 38245ft 435kts
28-Oct-20 17:06 40.064346 -107.778849 277 38241ft 436kts
28-Oct-20 17:07 40.069694 -107.936731 277 38241ft 436kts
28-Oct-20 17:08 40.075748 -108.094532 278 38240ft 436kts
28-Oct-20 17:09 40.082606 -108.252516 278 38240ft 435kts
28-Oct-20 17:10 40.089499 -108.409953 278 38240ft 435kts
28-Oct-20 17:11 40.096271 -108.567815 278 38238ft 435kts
28-Oct-20 17:12 40.102856 -108.725832 278 38245ft 436kts
28-Oct-20 17:13 40.109214 -108.883460 277 38243ft 435kts
28-Oct-20 17:14 40.114555 -109.041744 277 38241ft 436kts
28-Oct-20 17:15 40.120195 -109.200453 276 38240ft 440kts
28-Oct-20 17:16 40.125880 -109.360112 276 38240ft 440kts
28-Oct-20 17:17 40.131426 -109.519937 276 38240ft 440kts
28-Oct-20 17:18 40.136759 -109.679167 275 38240ft 440kts
28-Oct-20 17:19 40.141906 -109.839158 275 38240ft 440kts
28-Oct-20 17:20 40.146836 -109.998843 275 38239ft 440kts
28-Oct-20 17:21 40.151117 -110.158360 273 38238ft 441kts
28-Oct-20 17:22 40.148634 -110.320293 272 36940ft 442kts
28-Oct-20 17:23 40.146644 -110.480121 273 34103ft 441kts
28-Oct-20 17:24 40.144939 -110.641183 272 30562ft 448kts
28-Oct-20 17:25 40.143135 -110.800206 272 27921ft 428kts
28-Oct-20 17:26 40.141233 -110.951493 271 25544ft 407kts
28-Oct-20 17:27 40.139232 -111.095824 271 23194ft 389kts
28-Oct-20 17:28 40.137052 -111.234084 270 20935ft 373kts
28-Oct-20 17:29 40.134041 -111.368268 271 18725ft 360kts
28-Oct-20 17:30 40.131833 -111.499411 275 16793ft 364kts
28-Oct-20 17:31 40.158356 -111.622697 297 16012ft 355kts
28-Oct-20 17:32 40.213003 -111.727792 315 15992ft 348kts
28-Oct-20 17:33 40.278080 -111.815460 316 14117ft 327kts
28-Oct-20 17:34 40.347125 -111.888770 324 12108ft 311kts
28-Oct-20 17:35 40.419093 -111.931971 352 11011ft 264kts
28-Oct-20 17:36 40.490479 -111.940339 354 9769ft 257kts
28-Oct-20 17:37 40.555881 -111.947822 353 8582ft 202kts
28-Oct-20 17:38 40.605888 -111.953597 353 7606ft 169kts
28-Oct-20 17:39 40.652163 -111.958942 353 6674ft 157kts
28-Oct-20 17:40 40.695134 -111.963910 353 5815ft 148kts
28-Oct-20 17:41 40.736477 -111.968646 353 5013ft 149kts
28-Oct-20 17:42 40.777733 -111.973435 352 4246ft 145kts
28-Oct-20 17:43 40.791820 -111.975584 311 4226ft 11kts
28-Oct-20 17:44 40.792063 -111.976140 287 4226ft 0kts
28-Oct-20 17:45 40.791192 -111.978793 175 4224ft 12kts
28-Oct-20 17:46 40.789177 -111.978822 164 4226ft 0kts
28-Oct-20 17:47 40.789177 -111.978822 164 4226ft 0kts

Navigation Log

Ident Type
Flight plan parsing failed, navigation log unavailable